sensor_id;sensor_type;location;lat;lon;timestamp;temperature;humidity
14248;DHT22;7208;49.826;6.004;2023-06-22T05:21:13;18.30;99.90
14248;DHT22;7208;49.826;6.004;2023-06-22T05:23:39;18.10;99.90
14248;DHT22;7208;49.826;6.004;2023-06-22T05:26:04;18.00;99.90
14248;DHT22;7208;49.826;6.004;2023-06-22T05:28:30;18.10;99.90
14248;DHT22;7208;49.826;6.004;2023-06-22T05:30:55;18.30;99.90
14248;DHT22;7208;49.826;6.004;2023-06-22T05:33:21;18.20;99.90
14248;DHT22;7208;49.826;6.004;2023-06-22T05:35:47;18.20;99.90
14248;DHT22;7208;49.826;6.004;2023-06-22T05:38:14;18.20;99.90
14248;DHT22;7208;49.826;6.004;2023-06-22T05:40:39;18.40;99.90
14248;DHT22;7208;49.826;6.004;2023-06-22T05:43:05;18.60;99.90
14248;DHT22;7208;49.826;6.004;2023-06-22T05:45:30;18.80;99.90
14248;DHT22;7208;49.826;6.004;2023-06-22T05:47:56;18.80;99.90
14248;DHT22;7208;49.826;6.004;2023-06-22T05:50:22;18.90;99.90
14248;DHT22;7208;49.826;6.004;2023-06-22T05:52:47;18.90;99.90
14248;DHT22;7208;49.826;6.004;2023-06-22T05:55:13;18.90;99.90
14248;DHT22;7208;49.826;6.004;2023-06-22T05:57:38;18.90;99.90
14248;DHT22;7208;49.826;6.004;2023-06-22T06:00:05;19.10;99.90
14248;DHT22;7208;49.826;6.004;2023-06-22T06:02:36;19.30;99.90
14248;DHT22;7208;49.826;6.004;2023-06-22T06:05:01;19.40;99.90
14248;DHT22;7208;49.826;6.004;2023-06-22T06:07:28;19.70;99.90
14248;DHT22;7208;49.826;6.004;2023-06-22T06:09:54;19.70;99.90
14248;DHT22;7208;49.826;6.004;2023-06-22T06:12:19;19.90;99.90
14248;DHT22;7208;49.826;6.004;2023-06-22T06:14:45;20.00;99.90
14248;DHT22;7208;49.826;6.004;2023-06-22T06:17:12;19.90;99.90
14248;DHT22;7208;49.826;6.004;2023-06-22T06:19:38;20.40;99.90
14248;DHT22;7208;49.826;6.004;2023-06-22T06:22:04;20.50;99.90
14248;DHT22;7208;49.826;6.004;2023-06-22T06:24:30;20.50;99.90
14248;DHT22;7208;49.826;6.004;2023-06-22T06:26:55;20.40;99.90
14248;DHT22;7208;49.826;6.004;2023-06-22T06:29:21;20.40;99.90
14248;DHT22;7208;49.826;6.004;2023-06-22T06:31:49;20.40;99.90
14248;DHT22;7208;49.826;6.004;2023-06-22T06:34:14;20.40;99.90
14248;DHT22;7208;49.826;6.004;2023-06-22T06:36:40;20.50;99.90
14248;DHT22;7208;49.826;6.004;2023-06-22T06:39:06;20.60;99.90
14248;DHT22;7208;49.826;6.004;2023-06-22T06:41:31;20.70;99.90
14248;DHT22;7208;49.826;6.004;2023-06-22T06:43:57;20.80;99.90
14248;DHT22;7208;49.826;6.004;2023-06-22T06:46:22;20.90;99.90
14248;DHT22;7208;49.826;6.004;2023-06-22T06:48:48;21.00;99.90
14248;DHT22;7208;49.826;6.004;2023-06-22T06:51:14;21.00;99.90
14248;DHT22;7208;49.826;6.004;2023-06-22T06:53:39;21.10;99.90
14248;DHT22;7208;49.826;6.004;2023-06-22T06:56:05;21.20;99.90
14248;DHT22;7208;49.826;6.004;2023-06-22T06:58:31;21.20;99.90
14248;DHT22;7208;49.826;6.004;2023-06-22T07:00:56;21.20;99.90
14248;DHT22;7208;49.826;6.004;2023-06-22T07:03:22;21.30;99.90
14248;DHT22;7208;49.826;6.004;2023-06-22T07:05:48;21.50;99.90
14248;DHT22;7208;49.826;6.004;2023-06-22T07:08:13;21.50;99.90
14248;DHT22;7208;49.826;6.004;2023-06-22T07:10:39;21.60;99.90
14248;DHT22;7208;49.826;6.004;2023-06-22T07:13:05;21.50;99.90
14248;DHT22;7208;49.826;6.004;2023-06-22T07:15:30;21.50;99.90
14248;DHT22;7208;49.826;6.004;2023-06-22T07:17:56;21.60;99.90
14248;DHT22;7208;49.826;6.004;2023-06-22T07:20:21;21.70;99.90
14248;DHT22;7208;49.826;6.004;2023-06-22T07:22:47;21.90;99.90
14248;DHT22;7208;49.826;6.004;2023-06-22T07:25:13;22.10;99.90
14248;DHT22;7208;49.826;6.004;2023-06-22T07:27:46;22.20;99.90
14248;DHT22;7208;49.826;6.004;2023-06-22T07:30:13;22.30;99.90
14248;DHT22;7208;49.826;6.004;2023-06-22T07:32:40;22.40;99.90
14248;DHT22;7208;49.826;6.004;2023-06-22T07:35:05;22.50;99.90
14248;DHT22;7208;49.826;6.004;2023-06-22T07:37:31;22.60;99.90
14248;DHT22;7208;49.826;6.004;2023-06-22T07:39:59;22.90;99.90
14248;DHT22;7208;49.826;6.004;2023-06-22T07:42:25;23.40;99.90
14248;DHT22;7208;49.826;6.004;2023-06-22T07:44:51;23.50;99.90
14248;DHT22;7208;49.826;6.004;2023-06-22T07:47:17;23.30;99.90
14248;DHT22;7208;49.826;6.004;2023-06-22T07:49:46;23.20;99.90
14248;DHT22;7208;49.826;6.004;2023-06-22T07:52:12;23.30;99.90
14248;DHT22;7208;49.826;6.004;2023-06-22T07:54:38;23.10;99.90
14248;DHT22;7208;49.826;6.004;2023-06-22T07:57:04;22.90;99.90
14248;DHT22;7208;49.826;6.004;2023-06-22T07:59:30;22.50;99.90
14248;DHT22;7208;49.826;6.004;2023-06-22T08:01:55;22.40;99.90
14248;DHT22;7208;49.826;6.004;2023-06-22T08:04:21;22.30;99.90
14248;DHT22;7208;49.826;6.004;2023-06-22T08:06:47;22.20;99.90
14248;DHT22;7208;49.826;6.004;2023-06-22T08:09:12;22.30;99.90
14248;DHT22;7208;49.826;6.004;2023-06-22T08:11:38;22.30;99.90
14248;DHT22;7208;49.826;6.004;2023-06-22T08:14:03;22.30;99.90
14248;DHT22;7208;49.826;6.004;2023-06-22T08:16:29;22.40;99.90
14248;DHT22;7208;49.826;6.004;2023-06-22T08:18:55;22.20;99.90
14248;DHT22;7208;49.826;6.004;2023-06-22T08:21:21;22.00;99.90
14248;DHT22;7208;49.826;6.004;2023-06-22T08:23:47;21.90;99.90
14248;DHT22;7208;49.826;6.004;2023-06-22T08:26:14;21.70;99.90
14248;DHT22;7208;49.826;6.004;2023-06-22T08:28:40;21.40;99.90
14248;DHT22;7208;49.826;6.004;2023-06-22T08:31:05;21.20;99.90
14248;DHT22;7208;49.826;6.004;2023-06-22T08:33:31;21.00;99.90
14248;DHT22;7208;49.826;6.004;2023-06-22T08:35:58;20.80;99.90
14248;DHT22;7208;49.826;6.004;2023-06-22T08:38:24;20.50;99.90
14248;DHT22;7208;49.826;6.004;2023-06-22T08:40:50;20.30;99.90
14248;DHT22;7208;49.826;6.004;2023-06-22T08:43:15;19.90;99.90
14248;DHT22;7208;49.826;6.004;2023-06-22T08:45:41;19.70;99.90
14248;DHT22;7208;49.826;6.004;2023-06-22T08:48:07;19.50;99.90
14248;DHT22;7208;49.826;6.004;2023-06-22T08:50:32;19.50;99.90
14248;DHT22;7208;49.826;6.004;2023-06-22T08:52:58;19.40;99.90
14248;DHT22;7208;49.826;6.004;2023-06-22T08:55:24;19.40;99.90
14248;DHT22;7208;49.826;6.004;2023-06-22T08:57:49;19.50;99.90
14248;DHT22;7208;49.826;6.004;2023-06-22T09:00:15;19.40;99.90
14248;DHT22;7208;49.826;6.004;2023-06-22T09:02:43;19.50;99.90
14248;DHT22;7208;49.826;6.004;2023-06-22T09:05:09;19.10;99.90
14248;DHT22;7208;49.826;6.004;2023-06-22T09:07:35;19.30;99.90
14248;DHT22;7208;49.826;6.004;2023-06-22T09:10:01;19.30;99.90
14248;DHT22;7208;49.826;6.004;2023-06-22T09:12:30;19.30;99.90
14248;DHT22;7208;49.826;6.004;2023-06-22T09:14:56;19.50;99.90
14248;DHT22;7208;49.826;6.004;2023-06-22T09:17:22;19.60;99.90
14248;DHT22;7208;49.826;6.004;2023-06-22T09:19:48;19.40;99.90
14248;DHT22;7208;49.826;6.004;2023-06-22T09:22:14;19.70;99.90
14248;DHT22;7208;49.826;6.004;2023-06-22T09:24:40;19.80;99.90
14248;DHT22;7208;49.826;6.004;2023-06-22T09:27:05;20.30;99.90
14248;DHT22;7208;49.826;6.004;2023-06-22T09:29:31;20.30;99.90
14248;DHT22;7208;49.826;6.004;2023-06-22T09:31:59;20.30;99.90
14248;DHT22;7208;49.826;6.004;2023-06-22T09:34:25;20.40;99.90
14248;DHT22;7208;49.826;6.004;2023-06-22T09:36:51;20.30;99.90
14248;DHT22;7208;49.826;6.004;2023-06-22T09:39:18;20.30;99.90
14248;DHT22;7208;49.826;6.004;2023-06-22T09:41:44;20.30;99.90
14248;DHT22;7208;49.826;6.004;2023-06-22T09:44:10;20.10;99.90
14248;DHT22;7208;49.826;6.004;2023-06-22T09:46:35;20.10;99.90
14248;DHT22;7208;49.826;6.004;2023-06-22T09:49:01;20.00;99.90
14248;DHT22;7208;49.826;6.004;2023-06-22T09:51:26;20.10;99.90
14248;DHT22;7208;49.826;6.004;2023-06-22T09:53:52;20.20;99.90
14248;DHT22;7208;49.826;6.004;2023-06-22T09:56:19;19.90;99.90
14248;DHT22;7208;49.826;6.004;2023-06-22T09:58:46;20.20;99.90
14248;DHT22;7208;49.826;6.004;2023-06-22T10:01:12;20.50;99.90
14248;DHT22;7208;49.826;6.004;2023-06-22T10:03:41;21.10;99.90
14248;DHT22;7208;49.826;6.004;2023-06-22T10:06:07;21.60;99.90
14248;DHT22;7208;49.826;6.004;2023-06-22T10:08:34;22.40;99.90
14248;DHT22;7208;49.826;6.004;2023-06-22T10:11:00;22.60;99.90
14248;DHT22;7208;49.826;6.004;2023-06-22T10:13:25;22.60;99.90
14248;DHT22;7208;49.826;6.004;2023-06-22T10:15:51;22.30;99.90
14248;DHT22;7208;49.826;6.004;2023-06-22T10:18:20;22.70;99.90
14248;DHT22;7208;49.826;6.004;2023-06-22T10:20:50;23.40;99.90
14248;DHT22;7208;49.826;6.004;2023-06-22T10:23:22;22.60;99.90
14248;DHT22;7208;49.826;6.004;2023-06-22T10:25:48;22.80;99.90
14248;DHT22;7208;49.826;6.004;2023-06-22T10:28:14;22.80;99.90
14248;DHT22;7208;49.826;6.004;2023-06-22T10:30:40;22.70;99.90
14248;DHT22;7208;49.826;6.004;2023-06-22T10:33:07;23.60;99.90
14248;DHT22;7208;49.826;6.004;2023-06-22T10:35:33;23.20;99.90
14248;DHT22;7208;49.826;6.004;2023-06-22T10:37:59;22.90;99.90
14248;DHT22;7208;49.826;6.004;2023-06-22T10:40:25;23.40;99.90
14248;DHT22;7208;49.826;6.004;2023-06-22T10:42:53;23.60;99.90
14248;DHT22;7208;49.826;6.004;2023-06-22T10:45:18;23.50;99.90
14248;DHT22;7208;49.826;6.004;2023-06-22T10:47:44;24.00;99.90
14248;DHT22;7208;49.826;6.004;2023-06-22T10:50:10;23.80;99.90
14248;DHT22;7208;49.826;6.004;2023-06-22T10:52:36;23.70;99.90
14248;DHT22;7208;49.826;6.004;2023-06-22T10:55:02;23.70;99.90
14248;DHT22;7208;49.826;6.004;2023-06-22T10:57:27;24.10;99.90
14248;DHT22;7208;49.826;6.004;2023-06-22T10:59:53;24.30;99.90
14248;DHT22;7208;49.826;6.004;2023-06-22T11:02:19;24.50;99.90
14248;DHT22;7208;49.826;6.004;2023-06-22T11:04:44;24.50;99.90
14248;DHT22;7208;49.826;6.004;2023-06-22T11:07:11;24.40;99.90
14248;DHT22;7208;49.826;6.004;2023-06-22T11:09:37;24.30;99.90
14248;DHT22;7208;49.826;6.004;2023-06-22T11:12:04;24.30;99.90
14248;DHT22;7208;49.826;6.004;2023-06-22T11:14:29;24.30;99.90
14248;DHT22;7208;49.826;6.004;2023-06-22T11:16:57;24.40;99.90
14248;DHT22;7208;49.826;6.004;2023-06-22T11:19:23;24.60;99.90
14248;DHT22;7208;49.826;6.004;2023-06-22T11:21:52;25.20;99.90
14248;DHT22;7208;49.826;6.004;2023-06-22T11:24:18;25.70;99.90
14248;DHT22;7208;49.826;6.004;2023-06-22T11:26:44;25.70;99.90
14248;DHT22;7208;49.826;6.004;2023-06-22T11:29:11;25.70;99.90
14248;DHT22;7208;49.826;6.004;2023-06-22T11:31:36;25.80;99.90
14248;DHT22;7208;49.826;6.004;2023-06-22T11:34:02;25.90;99.90
14248;DHT22;7208;49.826;6.004;2023-06-22T11:36:29;26.20;99.90
14248;DHT22;7208;49.826;6.004;2023-06-22T11:38:58;26.10;99.90
14248;DHT22;7208;49.826;6.004;2023-06-22T11:41:23;26.20;99.90
14248;DHT22;7208;49.826;6.004;2023-06-22T11:43:49;25.90;99.90
14248;DHT22;7208;49.826;6.004;2023-06-22T11:46:15;25.80;99.90
14248;DHT22;7208;49.826;6.004;2023-06-22T11:48:40;25.90;99.90
14248;DHT22;7208;49.826;6.004;2023-06-22T11:51:06;26.00;99.90
14248;DHT22;7208;49.826;6.004;2023-06-22T11:53:33;26.40;99.90
14248;DHT22;7208;49.826;6.004;2023-06-22T11:56:00;26.80;99.90
14248;DHT22;7208;49.826;6.004;2023-06-22T11:58:26;27.00;99.90
14248;DHT22;7208;49.826;6.004;2023-06-22T12:00:52;27.00;99.90
14248;DHT22;7208;49.826;6.004;2023-06-22T12:03:18;27.10;99.90
14248;DHT22;7208;49.826;6.004;2023-06-22T12:05:44;26.90;99.90
14248;DHT22;7208;49.826;6.004;2023-06-22T12:08:09;26.70;99.90
14248;DHT22;7208;49.826;6.004;2023-06-22T12:10:35;26.50;99.90
14248;DHT22;7208;49.826;6.004;2023-06-22T12:13:01;26.30;99.90
14248;DHT22;7208;49.826;6.004;2023-06-22T12:15:27;26.10;99.90
14248;DHT22;7208;49.826;6.004;2023-06-22T12:17:52;26.10;99.90
14248;DHT22;7208;49.826;6.004;2023-06-22T12:20:18;26.50;99.90
14248;DHT22;7208;49.826;6.004;2023-06-22T12:22:44;26.60;99.90
14248;DHT22;7208;49.826;6.004;2023-06-22T12:25:10;26.60;99.90
14248;DHT22;7208;49.826;6.004;2023-06-22T12:27:36;26.30;99.90
14248;DHT22;7208;49.826;6.004;2023-06-22T12:30:02;26.20;99.90
14248;DHT22;7208;49.826;6.004;2023-06-22T12:32:28;26.00;99.90
14248;DHT22;7208;49.826;6.004;2023-06-22T12:34:54;26.10;99.90
14248;DHT22;7208;49.826;6.004;2023-06-22T12:37:20;26.30;99.90
14248;DHT22;7208;49.826;6.004;2023-06-22T12:39:46;26.40;99.90
14248;DHT22;7208;49.826;6.004;2023-06-22T12:42:11;26.70;99.90
14248;DHT22;7208;49.826;6.004;2023-06-22T12:44:38;27.10;99.90
14248;DHT22;7208;49.826;6.004;2023-06-22T12:47:05;27.50;99.90
14248;DHT22;7208;49.826;6.004;2023-06-22T12:49:31;27.40;99.90
14248;DHT22;7208;49.826;6.004;2023-06-22T12:51:56;27.20;99.90
14248;DHT22;7208;49.826;6.004;2023-06-22T12:54:22;26.70;99.90
14248;DHT22;7208;49.826;6.004;2023-06-22T12:56:49;26.60;99.90
14248;DHT22;7208;49.826;6.004;2023-06-22T12:59:15;26.40;99.90
14248;DHT22;7208;49.826;6.004;2023-06-22T13:01:42;26.20;99.90
14248;DHT22;7208;49.826;6.004;2023-06-22T13:04:09;26.30;99.90
14248;DHT22;7208;49.826;6.004;2023-06-22T13:06:36;26.40;99.90
14248;DHT22;7208;49.826;6.004;2023-06-22T13:09:02;26.10;99.90
14248;DHT22;7208;49.826;6.004;2023-06-22T13:11:30;25.80;99.90
14248;DHT22;7208;49.826;6.004;2023-06-22T13:13:56;25.40;99.90
14248;DHT22;7208;49.826;6.004;2023-06-22T13:16:21;25.10;99.90
14248;DHT22;7208;49.826;6.004;2023-06-22T13:18:47;24.80;99.90
14248;DHT22;7208;49.826;6.004;2023-06-22T13:21:13;24.30;99.90
14248;DHT22;7208;49.826;6.004;2023-06-22T13:23:39;24.00;99.90
14248;DHT22;7208;49.826;6.004;2023-06-22T13:26:05;23.70;99.90
14248;DHT22;7208;49.826;6.004;2023-06-22T13:28:31;23.50;99.90
14248;DHT22;7208;49.826;6.004;2023-06-22T13:30:56;22.40;99.90
14248;DHT22;7208;49.826;6.004;2023-06-22T13:33:22;21.50;99.90
14248;DHT22;7208;49.826;6.004;2023-06-22T13:35:48;21.20;99.90
14248;DHT22;7208;49.826;6.004;2023-06-22T13:38:13;21.30;99.90
14248;DHT22;7208;49.826;6.004;2023-06-22T13:40:39;21.20;99.90
14248;DHT22;7208;49.826;6.004;2023-06-22T13:43:05;21.10;99.90
14248;DHT22;7208;49.826;6.004;2023-06-22T13:45:31;20.80;99.90
14248;DHT22;7208;49.826;6.004;2023-06-22T13:47:57;20.90;99.90
14248;DHT22;7208;49.826;6.004;2023-06-22T13:50:22;20.70;99.90
14248;DHT22;7208;49.826;6.004;2023-06-22T13:52:48;20.70;99.90
14248;DHT22;7208;49.826;6.004;2023-06-22T13:55:14;20.60;99.90
14248;DHT22;7208;49.826;6.004;2023-06-22T13:57:40;20.60;99.90
14248;DHT22;7208;49.826;6.004;2023-06-22T14:00:07;20.70;99.90
14248;DHT22;7208;49.826;6.004;2023-06-22T14:02:33;20.50;99.90
14248;DHT22;7208;49.826;6.004;2023-06-22T14:04:59;20.10;99.90
14248;DHT22;7208;49.826;6.004;2023-06-22T14:07:25;19.40;99.90
14248;DHT22;7208;49.826;6.004;2023-06-22T14:09:50;19.20;99.90
14248;DHT22;7208;49.826;6.004;2023-06-22T14:12:16;18.80;99.90
14248;DHT22;7208;49.826;6.004;2023-06-22T14:14:45;19.10;99.90
14248;DHT22;7208;49.826;6.004;2023-06-22T14:17:11;18.70;99.90
14248;DHT22;7208;49.826;6.004;2023-06-22T14:19:36;18.70;99.90
14248;DHT22;7208;49.826;6.004;2023-06-22T14:22:03;18.70;99.90
14248;DHT22;7208;49.826;6.004;2023-06-22T14:24:28;18.70;99.90
14248;DHT22;7208;49.826;6.004;2023-06-22T14:26:55;19.00;99.90
14248;DHT22;7208;49.826;6.004;2023-06-22T14:29:21;19.20;99.90
14248;DHT22;7208;49.826;6.004;2023-06-22T14:31:47;19.30;99.90
14248;DHT22;7208;49.826;6.004;2023-06-22T14:34:14;19.40;99.90
14248;DHT22;7208;49.826;6.004;2023-06-22T14:36:40;19.70;99.90
14248;DHT22;7208;49.826;6.004;2023-06-22T14:39:06;20.00;99.90
14248;DHT22;7208;49.826;6.004;2023-06-22T14:41:32;20.30;99.90
14248;DHT22;7208;49.826;6.004;2023-06-22T14:43:58;20.50;99.90
14248;DHT22;7208;49.826;6.004;2023-06-22T14:46:23;20.80;99.90
14248;DHT22;7208;49.826;6.004;2023-06-22T14:48:49;21.00;99.90
14248;DHT22;7208;49.826;6.004;2023-06-22T14:51:15;21.40;99.90
14248;DHT22;7208;49.826;6.004;2023-06-22T14:53:42;21.50;99.90
14248;DHT22;7208;49.826;6.004;2023-06-22T14:56:08;21.60;99.90
14248;DHT22;7208;49.826;6.004;2023-06-22T14:58:34;21.50;99.90
14248;DHT22;7208;49.826;6.004;2023-06-22T15:01:04;21.40;99.90
14248;DHT22;7208;49.826;6.004;2023-06-22T15:03:34;21.20;99.90
14248;DHT22;7208;49.826;6.004;2023-06-22T15:06:01;21.00;99.90
14248;DHT22;7208;49.826;6.004;2023-06-22T15:08:27;20.90;99.90
14248;DHT22;7208;49.826;6.004;2023-06-22T15:10:53;20.70;99.90
14248;DHT22;7208;49.826;6.004;2023-06-22T15:13:19;20.60;99.90
14248;DHT22;7208;49.826;6.004;2023-06-22T15:15:46;20.70;99.90
14248;DHT22;7208;49.826;6.004;2023-06-22T15:18:16;21.00;99.90
14248;DHT22;7208;49.826;6.004;2023-06-22T15:20:42;21.50;99.90
14248;DHT22;7208;49.826;6.004;2023-06-22T15:23:11;21.80;99.90
14248;DHT22;7208;49.826;6.004;2023-06-22T15:25:37;22.10;99.90
14248;DHT22;7208;49.826;6.004;2023-06-22T15:28:03;22.70;99.90
14248;DHT22;7208;49.826;6.004;2023-06-22T15:30:28;22.70;99.90
14248;DHT22;7208;49.826;6.004;2023-06-22T15:32:55;22.70;99.90
14248;DHT22;7208;49.826;6.004;2023-06-22T15:35:21;22.70;99.90
14248;DHT22;7208;49.826;6.004;2023-06-22T15:37:47;22.40;99.90
14248;DHT22;7208;49.826;6.004;2023-06-22T15:40:12;22.00;99.90
14248;DHT22;7208;49.826;6.004;2023-06-22T15:42:38;21.90;99.90
14248;DHT22;7208;49.826;6.004;2023-06-22T15:45:04;22.20;99.90
14248;DHT22;7208;49.826;6.004;2023-06-22T15:47:30;22.60;99.90
14248;DHT22;7208;49.826;6.004;2023-06-22T15:49:56;22.50;99.90
14248;DHT22;7208;49.826;6.004;2023-06-22T15:52:21;22.10;99.90
14248;DHT22;7208;49.826;6.004;2023-06-22T15:54:47;21.80;99.90
14248;DHT22;7208;49.826;6.004;2023-06-22T15:57:14;21.40;99.90
14248;DHT22;7208;49.826;6.004;2023-06-22T15:59:40;21.10;99.90
14248;DHT22;7208;49.826;6.004;2023-06-22T16:02:06;21.00;99.90
14248;DHT22;7208;49.826;6.004;2023-06-22T16:04:32;20.90;99.90
14248;DHT22;7208;49.826;6.004;2023-06-22T16:06:58;20.70;99.90
14248;DHT22;7208;49.826;6.004;2023-06-22T16:09:24;20.70;99.90
14248;DHT22;7208;49.826;6.004;2023-06-22T16:11:49;20.70;99.90
14248;DHT22;7208;49.826;6.004;2023-06-22T16:14:15;20.60;99.90
14248;DHT22;7208;49.826;6.004;2023-06-22T16:16:41;20.30;99.90
14248;DHT22;7208;49.826;6.004;2023-06-22T16:19:06;19.90;99.90
14248;DHT22;7208;49.826;6.004;2023-06-22T16:21:32;19.70;99.90
14248;DHT22;7208;49.826;6.004;2023-06-22T16:23:58;19.60;99.90
14248;DHT22;7208;49.826;6.004;2023-06-22T16:26:23;19.70;99.90
14248;DHT22;7208;49.826;6.004;2023-06-22T16:28:49;20.00;99.90
14248;DHT22;7208;49.826;6.004;2023-06-22T16:31:15;20.00;99.90
14248;DHT22;7208;49.826;6.004;2023-06-22T16:33:41;20.00;99.90
14248;DHT22;7208;49.826;6.004;2023-06-22T16:36:16;19.90;99.90
14248;DHT22;7208;49.826;6.004;2023-06-22T16:38:42;19.80;99.90
14248;DHT22;7208;49.826;6.004;2023-06-22T16:41:08;19.50;99.90
14248;DHT22;7208;49.826;6.004;2023-06-22T16:43:37;19.30;99.90
14248;DHT22;7208;49.826;6.004;2023-06-22T16:46:03;19.10;99.90
14248;DHT22;7208;49.826;6.004;2023-06-22T16:48:29;19.00;99.90
14248;DHT22;7208;49.826;6.004;2023-06-22T16:50:55;18.90;99.90
14248;DHT22;7208;49.826;6.004;2023-06-22T16:53:21;18.70;99.90
14248;DHT22;7208;49.826;6.004;2023-06-22T16:55:50;18.60;99.90
14248;DHT22;7208;49.826;6.004;2023-06-22T16:58:19;18.60;99.90
14248;DHT22;7208;49.826;6.004;2023-06-22T17:00:47;18.50;99.90
14248;DHT22;7208;49.826;6.004;2023-06-22T17:03:26;18.40;99.90
14248;DHT22;7208;49.826;6.004;2023-06-22T17:05:55;18.40;99.90
14248;DHT22;7208;49.826;6.004;2023-06-22T17:08:21;18.40;99.90
14248;DHT22;7208;49.826;6.004;2023-06-22T17:10:49;18.40;99.90
14248;DHT22;7208;49.826;6.004;2023-06-22T17:13:15;18.40;99.90
14248;DHT22;7208;49.826;6.004;2023-06-22T17:15:42;18.30;99.90
14248;DHT22;7208;49.826;6.004;2023-06-22T17:18:09;18.20;99.90
14248;DHT22;7208;49.826;6.004;2023-06-22T17:20:35;18.20;99.90
14248;DHT22;7208;49.826;6.004;2023-06-22T17:23:01;18.10;99.90
14248;DHT22;7208;49.826;6.004;2023-06-22T17:25:28;18.00;99.90
14248;DHT22;7208;49.826;6.004;2023-06-22T17:28:03;18.00;99.90
14248;DHT22;7208;49.826;6.004;2023-06-22T17:30:29;18.00;99.90
14248;DHT22;7208;49.826;6.004;2023-06-22T17:32:55;18.00;99.90
14248;DHT22;7208;49.826;6.004;2023-06-22T17:35:21;18.00;99.90
14248;DHT22;7208;49.826;6.004;2023-06-22T17:37:47;18.10;99.90
14248;DHT22;7208;49.826;6.004;2023-06-22T17:40:18;18.20;99.90
14248;DHT22;7208;49.826;6.004;2023-06-22T17:42:44;18.60;99.90
14248;DHT22;7208;49.826;6.004;2023-06-22T17:45:23;18.60;99.90
14248;DHT22;7208;49.826;6.004;2023-06-22T17:47:50;18.40;99.90
14248;DHT22;7208;49.826;6.004;2023-06-22T17:50:16;18.20;99.90
14248;DHT22;7208;49.826;6.004;2023-06-22T17:52:53;18.10;99.90
14248;DHT22;7208;49.826;6.004;2023-06-22T17:55:22;18.10;99.90
14248;DHT22;7208;49.826;6.004;2023-06-22T17:57:54;18.00;99.90
14248;DHT22;7208;49.826;6.004;2023-06-22T18:00:20;17.90;99.90
14248;DHT22;7208;49.826;6.004;2023-06-22T18:02:46;17.90;99.90
14248;DHT22;7208;49.826;6.004;2023-06-22T18:05:14;17.80;99.90
14248;DHT22;7208;49.826;6.004;2023-06-22T18:07:40;17.80;99.90
14248;DHT22;7208;49.826;6.004;2023-06-22T18:10:08;17.80;99.90
14248;DHT22;7208;49.826;6.004;2023-06-22T18:12:35;17.80;99.90
14248;DHT22;7208;49.826;6.004;2023-06-22T18:15:02;17.80;99.90
14248;DHT22;7208;49.826;6.004;2023-06-22T18:17:28;17.80;99.90
14248;DHT22;7208;49.826;6.004;2023-06-22T18:19:55;17.80;99.90
14248;DHT22;7208;49.826;6.004;2023-06-22T18:22:22;17.70;99.90
14248;DHT22;7208;49.826;6.004;2023-06-22T18:24:49;17.70;99.90
14248;DHT22;7208;49.826;6.004;2023-06-22T18:27:15;17.70;99.90
14248;DHT22;7208;49.826;6.004;2023-06-22T18:29:42;17.70;99.90
14248;DHT22;7208;49.826;6.004;2023-06-22T18:32:11;17.70;99.90
14248;DHT22;7208;49.826;6.004;2023-06-22T18:34:39;17.60;99.90
14248;DHT22;7208;49.826;6.004;2023-06-22T18:37:08;17.60;99.90
14248;DHT22;7208;49.826;6.004;2023-06-22T18:39:40;17.60;99.90
14248;DHT22;7208;49.826;6.004;2023-06-22T18:42:09;17.50;99.90
14248;DHT22;7208;49.826;6.004;2023-06-22T18:44:34;17.50;99.90
14248;DHT22;7208;49.826;6.004;2023-06-22T18:47:02;17.50;99.90
14248;DHT22;7208;49.826;6.004;2023-06-22T18:49:32;17.40;99.90
14248;DHT22;7208;49.826;6.004;2023-06-22T18:52:24;17.40;99.90
14248;DHT22;7208;49.826;6.004;2023-06-22T18:54:53;17.40;99.90
14248;DHT22;7208;49.826;6.004;2023-06-22T18:57:25;17.40;99.90
14248;DHT22;7208;49.826;6.004;2023-06-22T19:00:07;17.30;99.90
14248;DHT22;7208;49.826;6.004;2023-06-22T19:02:46;17.30;99.90
14248;DHT22;7208;49.826;6.004;2023-06-22T19:08:03;17.20;99.90
14248;DHT22;7208;49.826;6.004;2023-06-22T19:13:29;17.10;99.90
14248;DHT22;7208;49.826;6.004;2023-06-22T19:15:59;17.10;99.90
14248;DHT22;7208;49.826;6.004;2023-06-22T19:18:48;17.00;99.90
14248;DHT22;7208;49.826;6.004;2023-06-22T19:21:22;16.80;99.90
14248;DHT22;7208;49.826;6.004;2023-06-22T19:23:48;16.70;99.90
14248;DHT22;7208;49.826;6.004;2023-06-22T19:26:15;16.50;99.90
14248;DHT22;7208;49.826;6.004;2023-06-22T19:28:52;16.40;99.90
14248;DHT22;7208;49.826;6.004;2023-06-22T19:31:19;16.20;99.90
14248;DHT22;7208;49.826;6.004;2023-06-22T19:33:45;16.10;99.90
14248;DHT22;7208;49.826;6.004;2023-06-22T19:36:11;16.00;99.90
14248;DHT22;7208;49.826;6.004;2023-06-22T19:38:39;16.00;99.90
14248;DHT22;7208;49.826;6.004;2023-06-22T19:41:09;15.90;99.90
14248;DHT22;7208;49.826;6.004;2023-06-22T19:43:35;15.90;99.90
14248;DHT22;7208;49.826;6.004;2023-06-22T19:46:01;15.80;99.90
14248;DHT22;7208;49.826;6.004;2023-06-22T19:48:28;15.80;99.90
14248;DHT22;7208;49.826;6.004;2023-06-22T19:50:55;15.80;99.90
14248;DHT22;7208;49.826;6.004;2023-06-22T19:53:26;15.80;99.90
14248;DHT22;7208;49.826;6.004;2023-06-22T19:55:52;15.80;99.90
14248;DHT22;7208;49.826;6.004;2023-06-22T19:58:19;15.80;99.90
14248;DHT22;7208;49.826;6.004;2023-06-22T20:00:45;15.70;99.90
14248;DHT22;7208;49.826;6.004;2023-06-22T20:03:36;15.70;99.90
14248;DHT22;7208;49.826;6.004;2023-06-22T20:08:49;15.70;99.90
14248;DHT22;7208;49.826;6.004;2023-06-22T20:11:24;15.70;99.90
14248;DHT22;7208;49.826;6.004;2023-06-22T20:13:51;15.70;99.90
14248;DHT22;7208;49.826;6.004;2023-06-22T20:16:17;15.70;99.90
14248;DHT22;7208;49.826;6.004;2023-06-22T20:18:44;15.70;99.90
14248;DHT22;7208;49.826;6.004;2023-06-22T20:21:11;15.70;99.90
14248;DHT22;7208;49.826;6.004;2023-06-22T20:23:39;15.80;99.90
14248;DHT22;7208;49.826;6.004;2023-06-22T20:26:08;15.80;99.90
14248;DHT22;7208;49.826;6.004;2023-06-22T20:28:34;15.80;99.90
14248;DHT22;7208;49.826;6.004;2023-06-22T20:31:09;15.90;99.90
14248;DHT22;7208;49.826;6.004;2023-06-22T20:33:38;15.90;99.90
14248;DHT22;7208;49.826;6.004;2023-06-22T20:36:07;16.00;99.90
14248;DHT22;7208;49.826;6.004;2023-06-22T20:38:34;16.00;99.90
14248;DHT22;7208;49.826;6.004;2023-06-22T20:41:02;16.00;99.90
14248;DHT22;7208;49.826;6.004;2023-06-22T20:43:30;16.00;99.90
14248;DHT22;7208;49.826;6.004;2023-06-22T20:45:56;16.00;99.90
14248;DHT22;7208;49.826;6.004;2023-06-22T20:48:24;16.00;99.90
14248;DHT22;7208;49.826;6.004;2023-06-22T20:50:50;16.10;99.90
14248;DHT22;7208;49.826;6.004;2023-06-22T20:53:16;16.10;99.90
14248;DHT22;7208;49.826;6.004;2023-06-22T20:55:41;16.20;99.90
14248;DHT22;7208;49.826;6.004;2023-06-22T20:58:09;16.20;99.90
14248;DHT22;7208;49.826;6.004;2023-06-22T21:00:36;16.20;99.90
14248;DHT22;7208;49.826;6.004;2023-06-22T21:03:11;16.20;99.90
14248;DHT22;7208;49.826;6.004;2023-06-22T21:05:40;16.20;99.90
14248;DHT22;7208;49.826;6.004;2023-06-22T21:08:06;16.20;99.90
14248;DHT22;7208;49.826;6.004;2023-06-22T21:10:31;16.20;99.90